createdAt,value
2023-02-05T00:00:21.430Z,2.10
2023-02-05T00:02:52.596Z,2.10
2023-02-05T00:05:22.367Z,2.00
2023-02-05T00:07:52.034Z,2.10
2023-02-05T00:10:21.804Z,2.10
2023-02-05T00:12:51.575Z,2.00
2023-02-05T00:15:21.338Z,2.10
2023-02-05T00:17:52.513Z,2.20
2023-02-05T00:20:22.376Z,2.10
2023-02-05T00:22:52.127Z,2.00
2023-02-05T00:25:21.941Z,2.00
2023-02-05T00:27:51.829Z,2.00
2023-02-05T00:30:22.664Z,2.00
2023-02-05T00:32:53.863Z,2.10
2023-02-05T00:35:23.691Z,2.10
2023-02-05T00:37:53.513Z,2.10
2023-02-05T00:40:23.292Z,2.10
2023-02-05T00:42:53.034Z,2.10
2023-02-05T00:45:22.946Z,2.10
2023-02-05T00:47:54.499Z,2.10
2023-02-05T00:50:24.088Z,2.00
2023-02-05T00:52:53.849Z,2.00
2023-02-05T00:55:23.886Z,2.00
2023-02-05T00:57:53.523Z,2.10
2023-02-05T01:00:25.142Z,2.10
2023-02-05T01:02:56.200Z,2.20
2023-02-05T01:05:26.086Z,2.30
2023-02-05T01:07:55.935Z,2.30
2023-02-05T01:10:25.915Z,2.30
2023-02-05T01:12:55.758Z,2.30
2023-02-05T01:15:27.647Z,2.20
2023-02-05T01:17:59.919Z,2.30
2023-02-05T01:20:29.767Z,2.20
2023-02-05T01:22:59.677Z,2.10
2023-02-05T01:25:29.490Z,2.00
2023-02-05T01:27:59.456Z,2.00
2023-02-05T01:30:29.141Z,1.90
2023-02-05T01:33:00.396Z,1.90
2023-02-05T01:35:30.407Z,1.90
2023-02-05T01:38:00.246Z,1.90
2023-02-05T01:40:30.065Z,2.00
2023-02-05T01:42:59.723Z,1.90
2023-02-05T01:45:51.651Z,2.00
2023-02-05T01:48:24.672Z,2.00
2023-02-05T01:50:58.383Z,2.00
2023-02-05T01:53:30.130Z,2.00
2023-02-05T01:56:04.221Z,2.00
2023-02-05T01:58:39.873Z,1.90
2023-02-05T02:01:08.091Z,1.90
2023-02-05T02:03:40.449Z,1.80
2023-02-05T02:06:10.393Z,1.80
2023-02-05T02:08:40.275Z,1.70
2023-02-05T02:11:12.792Z,1.70
2023-02-05T02:13:43.222Z,1.70
2023-02-05T02:16:13.632Z,1.80
2023-02-05T02:18:46.088Z,1.80
2023-02-05T02:22:11.018Z,1.80
2023-02-05T02:24:57.248Z,1.80
2023-02-05T02:27:41.439Z,1.70
2023-02-05T02:30:17.488Z,1.70
2023-02-05T02:32:52.052Z,1.60
2023-02-05T02:35:26.367Z,1.50
2023-02-05T02:38:01.139Z,1.60
2023-02-05T02:40:40.037Z,1.60
2023-02-05T02:43:15.602Z,1.60
2023-02-05T02:45:51.974Z,1.60
2023-02-05T02:48:25.500Z,1.50
2023-02-05T02:50:57.475Z,1.40
2023-02-05T02:53:30.238Z,1.40
2023-02-05T02:56:02.401Z,1.30
2023-02-05T02:58:40.758Z,1.30
2023-02-05T03:01:12.824Z,1.40
2023-02-05T03:03:47.388Z,1.60
2023-02-05T03:06:19.646Z,1.80
2023-02-05T03:08:55.786Z,1.80
2023-02-05T03:11:27.129Z,1.60
2023-02-05T03:13:58.879Z,1.40
2023-02-05T03:16:29.583Z,1.30
2023-02-05T03:18:59.426Z,1.20
2023-02-05T03:21:34.961Z,1.10
2023-02-05T03:24:04.945Z,1.10
2023-02-05T03:26:36.017Z,1.20
2023-02-05T03:29:10.514Z,1.20
2023-02-05T03:31:46.440Z,1.30
2023-02-05T03:34:27.217Z,1.40
2023-02-05T03:37:05.723Z,1.40
2023-02-05T03:39:47.003Z,1.30
2023-02-05T03:42:30.655Z,1.40
2023-02-05T03:45:24.172Z,1.50
2023-02-05T03:48:12.415Z,1.50
2023-02-05T03:50:44.670Z,1.30
2023-02-05T03:53:21.405Z,1.30
2023-02-05T03:55:56.646Z,1.40
2023-02-05T03:58:31.019Z,1.40
2023-02-05T04:01:02.354Z,1.30
2023-02-05T04:03:32.054Z,1.30
2023-02-05T04:06:01.787Z,1.30
2023-02-05T04:08:31.563Z,1.30
2023-02-05T04:11:01.458Z,1.40
2023-02-05T04:13:31.282Z,1.40
2023-02-05T04:16:02.499Z,1.40
2023-02-05T04:18:32.282Z,1.50
2023-02-05T04:21:02.079Z,1.50
2023-02-05T04:23:31.999Z,1.50
2023-02-05T04:26:01.682Z,1.50
2023-02-05T04:28:31.422Z,1.40
2023-02-05T04:31:02.705Z,1.40
2023-02-05T04:33:32.331Z,1.40
2023-02-05T04:36:02.598Z,1.30
2023-02-05T04:38:32.401Z,1.20
2023-02-05T04:41:02.403Z,1.20
2023-02-05T04:43:32.161Z,1.20
2023-02-05T04:46:06.325Z,1.20
2023-02-05T04:48:36.746Z,1.20
2023-02-05T04:51:07.964Z,1.20
2023-02-05T04:53:37.539Z,1.20
2023-02-05T04:56:07.144Z,1.20
2023-02-05T04:58:36.823Z,1.20
2023-02-05T05:01:11.958Z,1.10
2023-02-05T05:03:42.013Z,1.10
2023-02-05T05:06:12.426Z,1.00
2023-02-05T05:08:42.168Z,1.10
2023-02-05T05:11:13.449Z,1.10
2023-02-05T05:13:43.857Z,1.20
2023-02-05T05:16:15.638Z,1.30
2023-02-05T05:18:45.446Z,1.30
2023-02-05T05:21:15.154Z,1.20
2023-02-05T05:23:44.954Z,1.20
2023-02-05T05:26:15.215Z,1.20
2023-02-05T05:28:45.014Z,1.10
2023-02-05T05:31:19.512Z,1.20
2023-02-05T05:33:49.440Z,1.20
2023-02-05T05:36:19.547Z,1.30
2023-02-05T05:38:49.381Z,1.30
2023-02-05T05:41:39.858Z,1.20
2023-02-05T05:44:09.890Z,1.10
2023-02-05T05:46:40.798Z,1.10
2023-02-05T05:49:10.677Z,1.10
2023-02-05T05:51:40.441Z,1.10
2023-02-05T05:54:10.254Z,1.10
2023-02-05T05:56:40.238Z,1.10
2023-02-05T05:59:09.723Z,1.10
2023-02-05T06:01:39.047Z,1.10
2023-02-05T06:04:08.994Z,1.10
2023-02-05T06:06:39.115Z,1.10
2023-02-05T06:09:10.524Z,1.10
2023-02-05T06:11:40.314Z,1.10
2023-02-05T06:14:10.099Z,1.10
2023-02-05T06:16:41.271Z,1.20
2023-02-05T06:19:11.065Z,1.30
2023-02-05T06:21:41.024Z,1.20
2023-02-05T06:24:10.895Z,1.30
2023-02-05T06:26:40.659Z,1.20
2023-02-05T06:29:10.360Z,1.20
2023-02-05T06:31:41.579Z,1.20
2023-02-05T06:34:11.208Z,1.30
2023-02-05T06:36:40.999Z,1.40
2023-02-05T06:39:10.783Z,1.30
2023-02-05T06:41:40.565Z,1.40
2023-02-05T06:44:10.327Z,1.40
2023-02-05T06:46:41.555Z,1.30
2023-02-05T06:49:13.108Z,1.20
2023-02-05T06:51:42.815Z,1.20
2023-02-05T06:54:12.589Z,1.20
2023-02-05T06:56:42.302Z,1.20
2023-02-05T06:59:11.967Z,1.30
2023-02-05T07:01:43.134Z,1.30
2023-02-05T07:04:12.989Z,1.20
2023-02-05T07:06:42.820Z,1.10
2023-02-05T07:09:13.113Z,1.20
2023-02-05T07:11:42.864Z,1.30
2023-02-05T07:14:12.729Z,1.20
2023-02-05T07:16:44.270Z,1.10
2023-02-05T07:19:14.086Z,1.10
2023-02-05T07:21:43.883Z,1.00
2023-02-05T07:24:13.708Z,1.10
2023-02-05T07:26:45.221Z,1.10
2023-02-05T07:29:15.101Z,1.10
2023-02-05T07:31:46.142Z,1.10
2023-02-05T07:34:15.965Z,1.00
2023-02-05T07:36:45.775Z,1.00
2023-02-05T07:39:15.910Z,1.10
2023-02-05T07:41:45.698Z,1.10
2023-02-05T07:44:15.794Z,1.10
2023-02-05T07:46:46.972Z,1.00
2023-02-05T07:49:16.845Z,1.00
2023-02-05T07:51:47.389Z,1.10
2023-02-05T07:54:16.900Z,1.00
2023-02-05T07:56:46.796Z,1.00
2023-02-05T07:59:16.589Z,1.00
2023-02-05T08:01:47.794Z,0.90
2023-02-05T08:04:17.792Z,0.90
2023-02-05T08:06:47.329Z,0.90
2023-02-05T08:09:17.263Z,0.90
2023-02-05T08:11:47.006Z,0.90
2023-02-05T08:14:16.767Z,0.90
2023-02-05T08:16:47.875Z,0.90
2023-02-05T08:19:18.783Z,1.00
2023-02-05T08:21:48.424Z,1.20
2023-02-05T08:24:18.427Z,1.30
2023-02-05T08:26:48.000Z,1.30
2023-02-05T08:29:19.830Z,1.40
2023-02-05T08:31:51.087Z,1.50
2023-02-05T08:34:21.048Z,1.60
2023-02-05T08:36:50.896Z,1.80
2023-02-05T08:39:20.826Z,1.80
2023-02-05T08:41:50.662Z,1.80
2023-02-05T08:44:20.500Z,1.80
2023-02-05T08:46:51.574Z,1.70
2023-02-05T08:49:21.415Z,1.60
2023-02-05T08:51:51.593Z,1.50
2023-02-05T08:54:21.293Z,1.50
2023-02-05T08:56:53.052Z,1.60
2023-02-05T08:59:23.312Z,1.50
2023-02-05T09:01:54.619Z,1.60
2023-02-05T09:04:25.742Z,1.80
2023-02-05T09:06:55.458Z,1.90
2023-02-05T09:09:25.271Z,1.80
2023-02-05T09:11:55.056Z,1.90
2023-02-05T09:14:24.968Z,1.90
2023-02-05T09:16:56.211Z,1.90
2023-02-05T09:19:25.750Z,1.90
2023-02-05T09:21:55.930Z,2.00
2023-02-05T09:24:25.693Z,2.00
2023-02-05T09:26:55.708Z,1.90
2023-02-05T09:29:25.865Z,1.90
2023-02-05T09:31:57.215Z,1.90
2023-02-05T09:34:27.374Z,1.80
2023-02-05T09:36:56.950Z,1.70
2023-02-05T09:40:12.018Z,1.90
2023-02-05T09:42:28.874Z,1.90
2023-02-05T09:45:07.011Z,1.80
2023-02-05T09:47:48.639Z,1.90
2023-02-05T09:50:26.068Z,1.80
2023-02-05T09:53:00.618Z,1.80
2023-02-05T09:55:33.752Z,1.90
2023-02-05T09:58:07.565Z,2.20
2023-02-05T10:00:44.721Z,2.00
2023-02-05T10:03:22.851Z,2.00
2023-02-05T10:06:04.880Z,2.10
2023-02-05T10:08:42.118Z,2.20
2023-02-05T10:11:22.498Z,2.20
2023-02-05T10:14:03.304Z,2.20
2023-02-05T10:16:54.650Z,2.00
2023-02-05T10:19:37.373Z,1.80
2023-02-05T10:22:17.214Z,1.70
2023-02-05T10:25:13.987Z,1.80
2023-02-05T10:27:54.673Z,1.80
2023-02-05T10:30:31.665Z,1.80
2023-02-05T10:33:06.370Z,1.70
2023-02-05T10:35:45.502Z,1.60
2023-02-05T10:38:23.727Z,1.60
2023-02-05T10:41:00.328Z,1.60
2023-02-05T10:43:37.417Z,1.60
2023-02-05T10:46:11.724Z,1.50
2023-02-05T10:48:45.886Z,1.40
2023-02-05T10:51:20.516Z,1.40
2023-02-05T10:53:50.347Z,1.40
2023-02-05T10:56:21.947Z,1.50
2023-02-05T10:58:56.490Z,1.50
2023-02-05T11:01:30.744Z,1.50
2023-02-05T11:04:05.295Z,1.50
2023-02-05T11:06:42.857Z,1.50
2023-02-05T11:09:31.573Z,1.60
2023-02-05T11:12:03.563Z,1.60
2023-02-05T11:14:38.317Z,1.80
2023-02-05T11:17:11.123Z,1.90
2023-02-05T11:19:41.313Z,1.90
2023-02-05T11:22:27.400Z,1.70
2023-02-05T11:25:07.348Z,1.70
2023-02-05T11:27:39.194Z,1.90
2023-02-05T11:30:49.599Z,1.90
2023-02-05T11:33:25.080Z,1.90
2023-02-05T11:35:56.332Z,2.00
2023-02-05T11:38:33.126Z,2.10
2023-02-05T11:41:04.194Z,1.90
2023-02-05T11:43:38.514Z,1.80
2023-02-05T11:46:15.194Z,1.80
2023-02-05T11:48:49.334Z,1.80
2023-02-05T11:51:30.321Z,1.90
2023-02-05T11:54:04.078Z,2.00
2023-02-05T11:56:34.141Z,2.10
2023-02-05T11:59:06.479Z,2.10
2023-02-05T12:01:37.172Z,2.00
2023-02-05T12:04:17.965Z,2.10
2023-02-05T12:06:51.992Z,2.00
2023-02-05T12:09:27.291Z,2.00
2023-02-05T12:12:03.792Z,2.00
2023-02-05T12:14:45.239Z,1.90
2023-02-05T12:17:36.876Z,1.90
2023-02-05T12:20:24.550Z,1.90
2023-02-05T12:23:26.478Z,1.90
2023-02-05T12:26:21.012Z,1.90
2023-02-05T12:29:02.411Z,2.00
2023-02-05T12:31:41.678Z,2.10
2023-02-05T12:34:27.692Z,2.00
2023-02-05T12:37:17.108Z,2.00
2023-02-05T12:39:53.529Z,2.20
2023-02-05T12:42:36.753Z,2.50
2023-02-05T12:45:24.917Z,2.40
2023-02-05T12:48:06.732Z,2.30
2023-02-05T12:50:54.573Z,2.60
2023-02-05T12:53:36.087Z,2.70
2023-02-05T12:56:23.181Z,2.50
2023-02-05T12:58:58.912Z,2.60
2023-02-05T13:01:38.131Z,2.50
2023-02-05T13:04:16.412Z,2.50
2023-02-05T13:06:51.120Z,2.60
2023-02-05T13:09:25.254Z,2.40
2023-02-05T13:11:58.370Z,2.40
2023-02-05T13:14:35.451Z,2.40
2023-02-05T13:17:07.679Z,2.30
2023-02-05T13:19:43.410Z,2.40
2023-02-05T13:22:36.552Z,2.40
2023-02-05T13:25:38.180Z,2.40
2023-02-05T13:28:39.742Z,2.30
2023-02-05T13:31:15.990Z,2.40
2023-02-05T13:33:46.314Z,2.40
2023-02-05T13:36:41.639Z,2.30
2023-02-05T13:39:33.786Z,2.40
2023-02-05T13:42:26.954Z,2.60
2023-02-05T13:45:28.451Z,2.70
2023-02-05T13:48:29.138Z,2.60
2023-02-05T13:51:23.098Z,2.40
2023-02-05T13:54:16.533Z,2.40
2023-02-05T13:57:04.177Z,2.30
2023-02-05T13:59:39.036Z,2.30
2023-02-05T14:02:32.429Z,2.30
2023-02-05T14:05:04.463Z,2.30
2023-02-05T14:07:38.538Z,2.30
2023-02-05T14:10:24.887Z,2.30
2023-02-05T14:12:55.346Z,2.20
2023-02-05T14:15:37.100Z,2.10
2023-02-05T14:18:07.474Z,2.10
2023-02-05T14:20:45.531Z,2.10
2023-02-05T14:23:15.669Z,2.40
2023-02-05T14:26:11.878Z,2.50
2023-02-05T14:28:53.385Z,2.30
2023-02-05T14:31:58.255Z,2.50
2023-02-05T14:34:48.368Z,2.20
2023-02-05T14:37:39.690Z,2.20
2023-02-05T14:40:23.735Z,2.20
2023-02-05T14:43:09.495Z,2.20
2023-02-05T14:45:45.736Z,2.20
2023-02-05T14:48:22.558Z,2.20
2023-02-05T14:51:03.200Z,2.20
2023-02-05T14:53:36.788Z,2.20
2023-02-05T14:56:08.771Z,2.10
2023-02-05T14:58:44.308Z,2.10
2023-02-05T15:01:45.084Z,2.10
2023-02-05T15:04:39.403Z,2.20
2023-02-05T15:07:14.547Z,2.20
2023-02-05T15:09:54.436Z,2.20
2023-02-05T15:12:34.993Z,2.20
2023-02-05T15:15:27.762Z,2.20
2023-02-05T15:18:03.283Z,2.20
2023-02-05T15:20:36.311Z,2.30
2023-02-05T15:23:19.587Z,2.20
2023-02-05T15:25:56.403Z,2.10
2023-02-05T15:28:32.966Z,2.10
2023-02-05T15:31:27.222Z,2.10
2023-02-05T15:34:03.256Z,2.10
2023-02-05T15:36:41.229Z,2.20
2023-02-05T15:39:19.777Z,2.20
2023-02-05T15:41:52.759Z,2.10
2023-02-05T15:44:24.164Z,2.10
2023-02-05T15:46:54.807Z,2.00
2023-02-05T15:49:30.873Z,1.90
2023-02-05T15:52:01.460Z,1.90
2023-02-05T15:54:32.436Z,1.90
2023-02-05T15:57:04.868Z,2.00
2023-02-05T15:59:35.626Z,2.00
2023-02-05T16:02:09.442Z,2.00
2023-02-05T16:04:40.156Z,2.00
2023-02-05T16:07:20.377Z,2.10
2023-02-05T16:09:54.020Z,2.10
2023-02-05T16:12:25.067Z,2.10
2023-02-05T16:15:01.121Z,2.10
2023-02-05T16:17:35.948Z,2.00
2023-02-05T16:20:15.843Z,1.90
2023-02-05T16:22:49.202Z,1.90
2023-02-05T16:25:38.068Z,1.90
2023-02-05T16:28:14.064Z,1.90
2023-02-05T16:30:46.102Z,1.90
2023-02-05T16:33:30.097Z,1.90
2023-02-05T16:36:02.741Z,1.80
2023-02-05T16:38:36.264Z,1.80
2023-02-05T16:41:21.643Z,1.80
2023-02-05T16:43:54.319Z,1.90
2023-02-05T16:46:25.359Z,1.90
2023-02-05T16:48:55.191Z,1.90
2023-02-05T16:51:55.079Z,2.00
2023-02-05T16:54:28.854Z,2.00
2023-02-05T16:57:00.743Z,2.00
2023-02-05T16:59:35.695Z,2.00
2023-02-05T17:02:06.390Z,2.10
2023-02-05T17:04:38.890Z,2.00
2023-02-05T17:07:18.348Z,1.90
2023-02-05T17:09:50.253Z,1.90
2023-02-05T17:12:40.869Z,1.90
2023-02-05T17:15:29.674Z,1.90
2023-02-05T17:18:04.538Z,1.90
2023-02-05T17:20:35.049Z,2.00
2023-02-05T17:23:13.353Z,2.00
2023-02-05T17:25:51.651Z,2.00
2023-02-05T17:28:25.793Z,2.00
2023-02-05T17:30:58.744Z,2.10
2023-02-05T17:33:29.419Z,2.10
2023-02-05T17:35:58.967Z,2.10
2023-02-05T17:38:28.739Z,2.00
2023-02-05T17:41:12.569Z,1.90
2023-02-05T17:43:42.178Z,1.90
2023-02-05T17:46:15.947Z,2.00
2023-02-05T17:48:45.556Z,1.90
2023-02-05T17:51:22.087Z,1.90
2023-02-05T17:53:52.475Z,1.90
2023-02-05T17:56:23.272Z,1.90
2023-02-05T17:58:53.677Z,1.90
2023-02-05T18:01:25.152Z,1.90
2023-02-05T18:03:55.097Z,1.90
2023-02-05T18:06:24.965Z,1.90
2023-02-05T18:08:54.802Z,1.90
2023-02-05T18:11:24.693Z,2.00
2023-02-05T18:13:54.477Z,1.90
2023-02-05T18:16:26.014Z,1.90
2023-02-05T18:18:55.687Z,2.00
2023-02-05T18:21:25.589Z,2.00
2023-02-05T18:23:55.355Z,2.00
2023-02-05T18:26:27.050Z,1.90
2023-02-05T18:28:56.897Z,2.00
2023-02-05T18:31:28.059Z,1.90
2023-02-05T18:33:57.892Z,2.00
2023-02-05T18:36:27.741Z,2.00
2023-02-05T18:38:58.727Z,2.00
2023-02-05T18:41:28.629Z,1.90
2023-02-05T18:43:59.385Z,1.90
2023-02-05T18:46:30.841Z,1.90
2023-02-05T18:49:00.451Z,1.90
2023-02-05T18:51:30.595Z,2.10
2023-02-05T18:54:01.011Z,2.10
2023-02-05T18:56:30.763Z,2.10
2023-02-05T18:59:02.255Z,2.10
2023-02-05T19:01:34.993Z,2.10
2023-02-05T19:04:06.481Z,2.10
2023-02-05T19:06:36.214Z,2.10
2023-02-05T19:09:06.909Z,2.10
2023-02-05T19:11:40.855Z,2.00
2023-02-05T19:14:14.338Z,2.00
2023-02-05T19:16:46.973Z,1.90
2023-02-05T19:19:18.332Z,1.90
2023-02-05T19:21:50.599Z,2.00
2023-02-05T19:24:21.403Z,2.00
2023-02-05T19:26:51.782Z,1.90
2023-02-05T19:29:23.207Z,1.90
2023-02-05T19:31:54.641Z,2.00
2023-02-05T19:34:24.727Z,2.00
2023-02-05T19:36:54.279Z,2.00
2023-02-05T19:39:24.142Z,2.00
2023-02-05T19:41:54.144Z,2.00
2023-02-05T19:44:23.950Z,2.00
2023-02-05T19:46:54.973Z,2.00
2023-02-05T19:49:25.157Z,2.10
2023-02-05T19:51:58.178Z,2.10
2023-02-05T19:54:29.423Z,2.20
2023-02-05T19:56:59.297Z,2.20
2023-02-05T19:59:29.288Z,2.10
2023-02-05T20:02:00.240Z,2.00
2023-02-05T20:04:30.405Z,1.90
2023-02-05T20:07:01.297Z,1.90
2023-02-05T20:09:31.830Z,1.80
2023-02-05T20:12:01.337Z,1.70
2023-02-05T20:14:31.174Z,1.80
2023-02-05T20:17:02.430Z,1.80
2023-02-05T20:19:32.252Z,1.80
2023-02-05T20:22:02.111Z,1.90
2023-02-05T20:24:31.928Z,1.90
2023-02-05T20:27:01.976Z,1.80
2023-02-05T20:29:49.496Z,1.80
2023-02-05T20:32:20.405Z,1.80
2023-02-05T20:34:50.398Z,1.70
2023-02-05T20:37:20.293Z,1.70
2023-02-05T20:39:49.841Z,1.70
2023-02-05T20:42:19.644Z,1.60
2023-02-05T20:44:49.470Z,1.60
2023-02-05T20:47:20.651Z,1.60
2023-02-05T20:49:50.437Z,1.60
2023-02-05T20:52:20.226Z,1.60
2023-02-05T20:54:50.135Z,1.60
2023-02-05T20:57:20.550Z,1.60
2023-02-05T20:59:50.282Z,1.70
2023-02-05T21:02:22.243Z,1.80
2023-02-05T21:04:52.798Z,1.80
2023-02-05T21:07:29.270Z,1.90
2023-02-05T21:10:02.009Z,2.00
2023-02-05T21:12:32.369Z,2.10
2023-02-05T21:15:02.144Z,2.10
2023-02-05T21:17:33.103Z,2.10
2023-02-05T21:20:04.913Z,2.10
2023-02-05T21:22:34.710Z,2.10
2023-02-05T21:25:04.541Z,2.10
2023-02-05T21:27:34.461Z,2.10
2023-02-05T21:30:04.740Z,2.10
2023-02-05T21:32:35.969Z,2.10
2023-02-05T21:35:05.888Z,2.00
2023-02-05T21:37:35.778Z,2.00
2023-02-05T21:40:09.569Z,1.90
2023-02-05T21:42:39.427Z,1.80
2023-02-05T21:45:09.871Z,1.70
2023-02-05T21:47:41.030Z,1.70
2023-02-05T21:50:11.217Z,1.80
2023-02-05T21:52:41.077Z,1.80
2023-02-05T21:55:10.800Z,1.80
2023-02-05T21:57:40.605Z,1.90
2023-02-05T22:00:11.351Z,2.00
2023-02-05T22:02:42.285Z,2.10
2023-02-05T22:05:12.205Z,2.00
2023-02-05T22:07:42.051Z,1.90
2023-02-05T22:10:12.748Z,2.00
2023-02-05T22:12:42.508Z,2.00
2023-02-05T22:15:14.194Z,1.90
2023-02-05T22:17:45.325Z,1.90
2023-02-05T22:20:16.120Z,1.90
2023-02-05T22:22:45.967Z,1.80
2023-02-05T22:25:15.841Z,1.90
2023-02-05T22:27:45.772Z,1.90
2023-02-05T22:30:15.930Z,2.00
2023-02-05T22:32:47.082Z,2.00
2023-02-05T22:35:16.802Z,2.00
2023-02-05T22:37:46.592Z,2.00
2023-02-05T22:40:16.353Z,1.90
2023-02-05T22:42:46.138Z,1.90
2023-02-05T22:45:15.908Z,1.90
2023-02-05T22:47:47.091Z,1.90
2023-02-05T22:50:17.118Z,2.00
2023-02-05T22:52:46.905Z,1.90
2023-02-05T22:55:16.732Z,1.90
2023-02-05T22:57:46.544Z,1.90
2023-02-05T23:00:16.937Z,2.00
2023-02-05T23:02:49.112Z,1.80
2023-02-05T23:05:18.994Z,1.80
2023-02-05T23:07:52.872Z,1.70
2023-02-05T23:10:23.434Z,1.70
2023-02-05T23:12:53.921Z,1.80
2023-02-05T23:15:23.711Z,1.90
2023-02-05T23:17:54.838Z,1.90
2023-02-05T23:20:24.537Z,2.00
2023-02-05T23:22:56.516Z,1.90
2023-02-05T23:25:26.126Z,1.90
2023-02-05T23:27:55.919Z,1.80
2023-02-05T23:30:25.783Z,1.80
2023-02-05T23:32:56.914Z,1.80
2023-02-05T23:35:26.697Z,1.80
2023-02-05T23:37:56.490Z,1.70
2023-02-05T23:40:26.197Z,1.80
2023-02-05T23:42:55.979Z,1.80
2023-02-05T23:45:25.806Z,1.80
2023-02-05T23:47:56.856Z,1.70
2023-02-05T23:50:26.596Z,1.70
2023-02-05T23:52:56.393Z,1.90
2023-02-05T23:55:26.176Z,1.90
2023-02-05T23:57:55.990Z,1.80
